sensor_id;sensor_type;location;lat;lon;timestamp;pressure;altitude;pressure_sealevel;temperature;humidity
72636;BME280;60679;48.888;15.544;2023-07-13T00:00:13;95938.50;;;19.72;59.90
72636;BME280;60679;48.888;15.544;2023-07-13T00:02:42;95935.78;;;19.72;59.91
72636;BME280;60679;48.888;15.544;2023-07-13T00:05:07;95933.03;;;19.72;60.21
72636;BME280;60679;48.888;15.544;2023-07-13T00:07:34;95936.88;;;19.71;60.07
72636;BME280;60679;48.888;15.544;2023-07-13T00:10:00;95930.88;;;19.69;60.27
72636;BME280;60679;48.888;15.544;2023-07-13T00:12:31;95932.78;;;19.69;60.66
72636;BME280;60679;48.888;15.544;2023-07-13T00:14:59;95935.59;;;19.64;60.53
72636;BME280;60679;48.888;15.544;2023-07-13T00:17:25;95930.94;;;19.64;60.38
72636;BME280;60679;48.888;15.544;2023-07-13T00:19:51;95932.25;;;19.67;60.60
72636;BME280;60679;48.888;15.544;2023-07-13T00:22:17;95922.34;;;19.71;60.46
72636;BME280;60679;48.888;15.544;2023-07-13T00:24:43;95911.31;;;19.76;60.67
72636;BME280;60679;48.888;15.544;2023-07-13T00:27:09;95899.75;;;19.84;60.14
72636;BME280;60679;48.888;15.544;2023-07-13T00:29:35;95904.59;;;19.92;60.44
72636;BME280;60679;48.888;15.544;2023-07-13T00:32:05;95902.59;;;19.97;60.15
72636;BME280;60679;48.888;15.544;2023-07-13T00:34:31;95901.47;;;19.98;60.11
72636;BME280;60679;48.888;15.544;2023-07-13T00:36:56;95910.84;;;19.97;60.49
72636;BME280;60679;48.888;15.544;2023-07-13T00:39:22;95910.06;;;19.92;60.33
72636;BME280;60679;48.888;15.544;2023-07-13T00:41:48;95897.53;;;19.86;60.48
72636;BME280;60679;48.888;15.544;2023-07-13T00:44:18;95899.78;;;19.79;60.72
72636;BME280;60679;48.888;15.544;2023-07-13T00:46:44;95904.22;;;19.75;60.68
72636;BME280;60679;48.888;15.544;2023-07-13T00:49:12;95888.88;;;19.74;60.77
72636;BME280;60679;48.888;15.544;2023-07-13T00:51:47;95884.75;;;19.76;60.50
72636;BME280;60679;48.888;15.544;2023-07-13T00:54:19;95877.06;;;19.78;60.64
72636;BME280;60679;48.888;15.544;2023-07-13T00:56:49;95867.72;;;19.79;60.58
72636;BME280;60679;48.888;15.544;2023-07-13T00:59:15;95859.22;;;19.81;60.70
72636;BME280;60679;48.888;15.544;2023-07-13T01:01:41;95849.59;;;19.83;60.28
72636;BME280;60679;48.888;15.544;2023-07-13T01:04:07;95837.50;;;19.84;60.52
72636;BME280;60679;48.888;15.544;2023-07-13T01:06:35;95830.94;;;19.85;60.46
72636;BME280;60679;48.888;15.544;2023-07-13T01:09:02;95837.22;;;19.86;60.52
72636;BME280;60679;48.888;15.544;2023-07-13T01:11:27;95837.50;;;19.84;60.70
72636;BME280;60679;48.888;15.544;2023-07-13T01:13:53;95824.94;;;19.83;60.22
72636;BME280;60679;48.888;15.544;2023-07-13T01:16:28;95825.53;;;19.80;60.59
72636;BME280;60679;48.888;15.544;2023-07-13T01:18:55;95829.66;;;19.78;60.59
72636;BME280;60679;48.888;15.544;2023-07-13T01:21:25;95823.63;;;19.76;60.62
72636;BME280;60679;48.888;15.544;2023-07-13T01:23:51;95817.63;;;19.74;60.68
72636;BME280;60679;48.888;15.544;2023-07-13T01:26:16;95806.75;;;19.69;60.45
72636;BME280;60679;48.888;15.544;2023-07-13T01:28:42;95795.78;;;19.69;60.51
72636;BME280;60679;48.888;15.544;2023-07-13T01:31:08;95796.03;;;19.72;60.53
72636;BME280;60679;48.888;15.544;2023-07-13T01:33:37;95793.81;;;19.74;60.64
72636;BME280;60679;48.888;15.544;2023-07-13T01:36:03;95795.97;;;19.77;60.57
72636;BME280;60679;48.888;15.544;2023-07-13T01:38:28;95802.19;;;19.83;60.08
72636;BME280;60679;48.888;15.544;2023-07-13T01:40:54;95799.16;;;19.84;60.39
72636;BME280;60679;48.888;15.544;2023-07-13T01:43:20;95804.03;;;19.87;60.10
72636;BME280;60679;48.888;15.544;2023-07-13T01:45:46;95807.59;;;19.88;60.13
72636;BME280;60679;48.888;15.544;2023-07-13T01:48:13;95807.38;;;19.84;60.45
72636;BME280;60679;48.888;15.544;2023-07-13T01:50:38;95806.84;;;19.82;60.33
72636;BME280;60679;48.888;15.544;2023-07-13T01:53:04;95806.63;;;19.79;60.26
72636;BME280;60679;48.888;15.544;2023-07-13T01:55:30;95812.09;;;19.79;60.06
72636;BME280;60679;48.888;15.544;2023-07-13T01:57:56;95811.31;;;19.78;60.18
72636;BME280;60679;48.888;15.544;2023-07-13T02:00:22;95824.47;;;19.76;60.32
72636;BME280;60679;48.888;15.544;2023-07-13T02:02:47;95830.50;;;19.78;60.52
72636;BME280;60679;48.888;15.544;2023-07-13T02:05:13;95835.66;;;19.80;60.23
72636;BME280;60679;48.888;15.544;2023-07-13T02:07:39;95846.09;;;19.78;60.26
72636;BME280;60679;48.888;15.544;2023-07-13T02:10:07;95840.63;;;19.78;60.35
72636;BME280;60679;48.888;15.544;2023-07-13T02:12:33;95858.69;;;19.79;60.35
72636;BME280;60679;48.888;15.544;2023-07-13T02:14:58;95852.69;;;19.77;60.27
72636;BME280;60679;48.888;15.544;2023-07-13T02:17:24;95868.09;;;19.73;60.53
72636;BME280;60679;48.888;15.544;2023-07-13T02:19:49;95864.63;;;19.62;60.65
72636;BME280;60679;48.888;15.544;2023-07-13T02:22:15;95864.44;;;19.53;60.58
72636;BME280;60679;48.888;15.544;2023-07-13T02:24:40;95868.31;;;19.52;60.93
72636;BME280;60679;48.888;15.544;2023-07-13T02:27:05;95874.34;;;19.49;60.66
72636;BME280;60679;48.888;15.544;2023-07-13T02:29:31;95891.06;;;19.48;60.59
72636;BME280;60679;48.888;15.544;2023-07-13T02:31:56;95899.00;;;19.49;60.96
72636;BME280;60679;48.888;15.544;2023-07-13T02:34:22;95907.69;;;19.56;60.96
72636;BME280;60679;48.888;15.544;2023-07-13T02:36:47;95904.91;;;19.62;60.96
72636;BME280;60679;48.888;15.544;2023-07-13T02:39:13;95913.38;;;19.65;60.88
72636;BME280;60679;48.888;15.544;2023-07-13T02:41:38;95904.88;;;19.67;60.65
72636;BME280;60679;48.888;15.544;2023-07-13T02:44:04;95911.97;;;19.68;60.74
72636;BME280;60679;48.888;15.544;2023-07-13T02:46:34;95910.88;;;19.69;60.55
72636;BME280;60679;48.888;15.544;2023-07-13T02:49:00;95929.22;;;19.68;60.91
72636;BME280;60679;48.888;15.544;2023-07-13T02:51:25;95923.75;;;19.68;60.58
72636;BME280;60679;48.888;15.544;2023-07-13T02:53:51;95926.22;;;19.70;60.81
72636;BME280;60679;48.888;15.544;2023-07-13T02:56:16;95923.16;;;19.71;61.09
72636;BME280;60679;48.888;15.544;2023-07-13T02:58:42;95931.13;;;19.68;60.67
72636;BME280;60679;48.888;15.544;2023-07-13T03:01:08;95936.09;;;19.66;60.88
72636;BME280;60679;48.888;15.544;2023-07-13T03:03:34;95938.03;;;19.65;60.82
72636;BME280;60679;48.888;15.544;2023-07-13T03:06:01;95932.03;;;19.63;61.31
72636;BME280;60679;48.888;15.544;2023-07-13T03:08:28;95941.06;;;19.64;61.31
72636;BME280;60679;48.888;15.544;2023-07-13T03:11:05;95941.06;;;19.64;61.08
72636;BME280;60679;48.888;15.544;2023-07-13T03:13:31;95945.72;;;19.63;61.44
72636;BME280;60679;48.888;15.544;2023-07-13T03:15:56;95942.97;;;19.63;61.48
72636;BME280;60679;48.888;15.544;2023-07-13T03:18:22;95951.19;;;19.63;61.14
72636;BME280;60679;48.888;15.544;2023-07-13T03:20:50;95944.38;;;19.61;61.57
72636;BME280;60679;48.888;15.544;2023-07-13T03:23:16;95942.97;;;19.63;61.24
72636;BME280;60679;48.888;15.544;2023-07-13T03:25:41;95945.16;;;19.66;61.26
72636;BME280;60679;48.888;15.544;2023-07-13T03:28:07;95950.31;;;19.68;61.29
72636;BME280;60679;48.888;15.544;2023-07-13T03:30:32;95947.88;;;19.66;61.51
72636;BME280;60679;48.888;15.544;2023-07-13T03:32:58;95954.75;;;19.64;61.39
72636;BME280;60679;48.888;15.544;2023-07-13T03:35:23;95955.59;;;19.64;61.61
72636;BME280;60679;48.888;15.544;2023-07-13T03:37:48;95955.28;;;19.66;61.79
72636;BME280;60679;48.888;15.544;2023-07-13T03:40:14;95953.88;;;19.68;61.71
72636;BME280;60679;48.888;15.544;2023-07-13T03:42:39;95961.00;;;19.69;61.61
72636;BME280;60679;48.888;15.544;2023-07-13T03:45:05;95961.00;;;19.69;61.53
72636;BME280;60679;48.888;15.544;2023-07-13T03:47:31;95962.59;;;19.75;61.42
72636;BME280;60679;48.888;15.544;2023-07-13T03:49:56;95956.81;;;19.77;61.62
72636;BME280;60679;48.888;15.544;2023-07-13T03:52:21;95969.69;;;19.76;61.64
72636;BME280;60679;48.888;15.544;2023-07-13T03:54:47;95962.03;;;19.73;61.69
72636;BME280;60679;48.888;15.544;2023-07-13T03:57:12;95965.63;;;19.74;61.33
72636;BME280;60679;48.888;15.544;2023-07-13T03:59:37;95960.97;;;19.74;61.34
72636;BME280;60679;48.888;15.544;2023-07-13T04:02:03;95970.00;;;19.75;61.28
72636;BME280;60679;48.888;15.544;2023-07-13T04:04:30;95963.94;;;19.78;61.71
72636;BME280;60679;48.888;15.544;2023-07-13T04:06:57;95961.44;;;19.81;61.53
72636;BME280;60679;48.888;15.544;2023-07-13T04:09:24;95957.81;;;19.86;61.65
72636;BME280;60679;48.888;15.544;2023-07-13T04:11:49;95962.78;;;19.84;61.71
72636;BME280;60679;48.888;15.544;2023-07-13T04:14:15;95963.81;;;19.88;61.43
72636;BME280;60679;48.888;15.544;2023-07-13T04:16:40;95964.66;;;19.88;61.52
72636;BME280;60679;48.888;15.544;2023-07-13T04:19:07;95959.47;;;19.87;61.70
72636;BME280;60679;48.888;15.544;2023-07-13T04:21:33;95956.69;;;19.92;61.57
72636;BME280;60679;48.888;15.544;2023-07-13T04:23:58;95964.00;;;19.96;61.75
72636;BME280;60679;48.888;15.544;2023-07-13T04:26:24;95967.81;;;20.00;61.56
72636;BME280;60679;48.888;15.544;2023-07-13T04:28:50;95967.25;;;20.03;61.60
72636;BME280;60679;48.888;15.544;2023-07-13T04:31:16;95967.75;;;20.05;61.37
72636;BME280;60679;48.888;15.544;2023-07-13T04:33:42;95960.88;;;20.08;61.35
72636;BME280;60679;48.888;15.544;2023-07-13T04:36:08;95967.19;;;20.08;61.46
72636;BME280;60679;48.888;15.544;2023-07-13T04:38:35;95954.28;;;20.09;61.39
72636;BME280;60679;48.888;15.544;2023-07-13T04:41:03;95965.25;;;20.09;61.58
72636;BME280;60679;48.888;15.544;2023-07-13T04:43:30;95958.44;;;20.06;61.33
72636;BME280;60679;48.888;15.544;2023-07-13T04:45:56;95960.88;;;20.08;61.57
72636;BME280;60679;48.888;15.544;2023-07-13T04:48:22;95961.63;;;20.13;61.40
72636;BME280;60679;48.888;15.544;2023-07-13T04:50:55;95956.91;;;20.19;61.14
72636;BME280;60679;48.888;15.544;2023-07-13T04:53:21;95960.97;;;20.27;61.18
72636;BME280;60679;48.888;15.544;2023-07-13T04:55:46;95964.19;;;20.34;60.98
72636;BME280;60679;48.888;15.544;2023-07-13T04:58:12;95960.50;;;20.43;60.56
72636;BME280;60679;48.888;15.544;2023-07-13T05:00:38;95965.28;;;20.56;60.29
72636;BME280;60679;48.888;15.544;2023-07-13T05:03:04;95958.75;;;20.71;60.28
72636;BME280;60679;48.888;15.544;2023-07-13T05:05:30;95952.31;;;20.81;59.88
72636;BME280;60679;48.888;15.544;2023-07-13T05:07:56;95958.50;;;20.91;60.13
72636;BME280;60679;48.888;15.544;2023-07-13T05:10:22;95958.63;;;21.00;59.84
72636;BME280;60679;48.888;15.544;2023-07-13T05:12:47;95948.41;;;21.05;60.04
72636;BME280;60679;48.888;15.544;2023-07-13T05:15:13;95942.44;;;21.17;59.68
72636;BME280;60679;48.888;15.544;2023-07-13T05:17:39;95950.78;;;21.31;59.51
72636;BME280;60679;48.888;15.544;2023-07-13T05:20:07;95951.44;;;21.41;59.32
72636;BME280;60679;48.888;15.544;2023-07-13T05:22:32;95956.53;;;21.48;59.28
72636;BME280;60679;48.888;15.544;2023-07-13T05:25:00;95957.69;;;21.60;58.98
72636;BME280;60679;48.888;15.544;2023-07-13T05:27:26;95954.56;;;21.67;58.89
72636;BME280;60679;48.888;15.544;2023-07-13T05:29:51;95945.63;;;21.75;58.33
72636;BME280;60679;48.888;15.544;2023-07-13T05:32:17;95957.25;;;21.85;58.13
72636;BME280;60679;48.888;15.544;2023-07-13T05:34:43;95951.88;;;21.94;57.94
72636;BME280;60679;48.888;15.544;2023-07-13T05:37:08;95960.03;;;21.99;58.29
72636;BME280;60679;48.888;15.544;2023-07-13T05:39:33;95952.72;;;21.95;58.31
72636;BME280;60679;48.888;15.544;2023-07-13T05:41:59;95951.16;;;21.89;58.29
72636;BME280;60679;48.888;15.544;2023-07-13T05:44:26;95953.09;;;21.88;58.52
72636;BME280;60679;48.888;15.544;2023-07-13T05:46:51;95954.97;;;21.93;58.30
72636;BME280;60679;48.888;15.544;2023-07-13T05:49:17;95961.56;;;21.92;58.46
72636;BME280;60679;48.888;15.544;2023-07-13T05:51:42;95956.88;;;21.92;58.54
72636;BME280;60679;48.888;15.544;2023-07-13T05:54:08;95970.03;;;21.95;58.11
72636;BME280;60679;48.888;15.544;2023-07-13T05:56:33;95968.00;;;22.01;58.10
72636;BME280;60679;48.888;15.544;2023-07-13T05:58:58;95968.50;;;22.03;58.57
72636;BME280;60679;48.888;15.544;2023-07-13T06:01:24;95966.38;;;22.00;58.11
72636;BME280;60679;48.888;15.544;2023-07-13T06:03:49;95964.94;;;22.02;58.08
72636;BME280;60679;48.888;15.544;2023-07-13T06:06:15;95967.59;;;22.07;57.99
72636;BME280;60679;48.888;15.544;2023-07-13T06:08:41;95974.25;;;22.20;57.61
72636;BME280;60679;48.888;15.544;2023-07-13T06:11:14;95975.78;;;22.26;57.74
72636;BME280;60679;48.888;15.544;2023-07-13T06:13:40;95978.94;;;22.33;57.73
72636;BME280;60679;48.888;15.544;2023-07-13T06:16:06;95984.97;;;22.35;57.08
72636;BME280;60679;48.888;15.544;2023-07-13T06:18:33;95987.91;;;22.38;57.33
72636;BME280;60679;48.888;15.544;2023-07-13T06:20:58;95981.28;;;22.39;57.09
72636;BME280;60679;48.888;15.544;2023-07-13T06:23:24;95986.69;;;22.44;57.21
72636;BME280;60679;48.888;15.544;2023-07-13T06:25:50;95987.81;;;22.43;56.87
72636;BME280;60679;48.888;15.544;2023-07-13T06:28:15;95990.47;;;22.49;56.57
72636;BME280;60679;48.888;15.544;2023-07-13T06:30:40;95990.34;;;22.54;56.98
72636;BME280;60679;48.888;15.544;2023-07-13T06:33:06;95986.38;;;22.60;56.82
72636;BME280;60679;48.888;15.544;2023-07-13T06:35:32;95987.41;;;22.64;56.94
72636;BME280;60679;48.888;15.544;2023-07-13T06:37:57;95988.94;;;22.70;56.55
72636;BME280;60679;48.888;15.544;2023-07-13T06:40:22;95989.03;;;22.78;56.21
72636;BME280;60679;48.888;15.544;2023-07-13T06:42:48;95991.88;;;22.87;56.13
72636;BME280;60679;48.888;15.544;2023-07-13T06:45:13;95986.38;;;22.87;55.95
72636;BME280;60679;48.888;15.544;2023-07-13T06:47:38;95995.34;;;22.92;55.97
72636;BME280;60679;48.888;15.544;2023-07-13T06:50:04;95993.63;;;22.96;55.93
72636;BME280;60679;48.888;15.544;2023-07-13T06:52:29;96003.59;;;22.92;55.66
72636;BME280;60679;48.888;15.544;2023-07-13T06:54:55;95993.94;;;22.81;56.00
72636;BME280;60679;48.888;15.544;2023-07-13T06:57:20;95995.38;;;22.79;56.04
72636;BME280;60679;48.888;15.544;2023-07-13T06:59:45;95997.94;;;22.89;55.91
72636;BME280;60679;48.888;15.544;2023-07-13T07:02:11;95997.50;;;22.95;55.80
72636;BME280;60679;48.888;15.544;2023-07-13T07:04:37;96009.94;;;22.93;55.70
72636;BME280;60679;48.888;15.544;2023-07-13T07:07:02;96009.56;;;22.86;55.68
72636;BME280;60679;48.888;15.544;2023-07-13T07:09:28;96011.16;;;22.87;55.96
72636;BME280;60679;48.888;15.544;2023-07-13T07:11:55;96010.16;;;22.96;55.74
72636;BME280;60679;48.888;15.544;2023-07-13T07:14:20;96015.75;;;23.05;55.52
72636;BME280;60679;48.888;15.544;2023-07-13T07:16:46;96020.44;;;23.05;55.69
72636;BME280;60679;48.888;15.544;2023-07-13T07:19:11;96018.25;;;23.15;55.20
72636;BME280;60679;48.888;15.544;2023-07-13T07:21:36;96018.38;;;23.10;55.65
72636;BME280;60679;48.888;15.544;2023-07-13T07:24:04;96014.81;;;23.10;55.80
72636;BME280;60679;48.888;15.544;2023-07-13T07:26:30;96019.41;;;23.00;55.95
72636;BME280;60679;48.888;15.544;2023-07-13T07:28:55;96019.41;;;23.00;55.72
72636;BME280;60679;48.888;15.544;2023-07-13T07:31:22;96012.91;;;22.96;56.00
72636;BME280;60679;48.888;15.544;2023-07-13T07:33:47;96018.31;;;22.88;55.96
72636;BME280;60679;48.888;15.544;2023-07-13T07:36:15;96024.13;;;22.86;56.30
72636;BME280;60679;48.888;15.544;2023-07-13T07:38:42;96028.50;;;22.87;56.34
72636;BME280;60679;48.888;15.544;2023-07-13T07:41:07;96028.41;;;22.92;55.68
72636;BME280;60679;48.888;15.544;2023-07-13T07:43:33;96036.25;;;22.99;55.87
72636;BME280;60679;48.888;15.544;2023-07-13T07:45:58;96034.41;;;23.08;55.52
72636;BME280;60679;48.888;15.544;2023-07-13T07:48:25;96028.56;;;23.23;55.08
72636;BME280;60679;48.888;15.544;2023-07-13T07:50:51;96031.78;;;23.52;54.65
72636;BME280;60679;48.888;15.544;2023-07-13T07:53:16;96029.34;;;23.73;54.54
72636;BME280;60679;48.888;15.544;2023-07-13T07:55:41;96029.34;;;23.95;54.01
72636;BME280;60679;48.888;15.544;2023-07-13T07:58:07;96025.59;;;24.13;53.55
72636;BME280;60679;48.888;15.544;2023-07-13T08:00:33;96029.47;;;24.35;53.36
72636;BME280;60679;48.888;15.544;2023-07-13T08:02:59;96027.50;;;24.66;52.87
72636;BME280;60679;48.888;15.544;2023-07-13T08:05:24;96022.44;;;24.99;52.27
72636;BME280;60679;48.888;15.544;2023-07-13T08:07:50;96028.53;;;25.44;51.68
72636;BME280;60679;48.888;15.544;2023-07-13T08:10:15;96021.72;;;25.84;50.91
72636;BME280;60679;48.888;15.544;2023-07-13T08:12:41;96019.75;;;26.27;50.44
72636;BME280;60679;48.888;15.544;2023-07-13T08:15:10;96024.59;;;26.39;50.42
72636;BME280;60679;48.888;15.544;2023-07-13T08:17:35;96032.84;;;26.56;49.81
72636;BME280;60679;48.888;15.544;2023-07-13T08:20:01;96029.72;;;26.66;49.60
72636;BME280;60679;48.888;15.544;2023-07-13T08:22:27;96036.47;;;26.94;49.29
72636;BME280;60679;48.888;15.544;2023-07-13T08:24:52;96033.22;;;27.22;48.84
72636;BME280;60679;48.888;15.544;2023-07-13T08:27:25;96022.84;;;27.39;48.77
72636;BME280;60679;48.888;15.544;2023-07-13T08:29:52;96025.25;;;27.20;48.62
72636;BME280;60679;48.888;15.544;2023-07-13T08:32:19;96030.16;;;26.85;48.97
72636;BME280;60679;48.888;15.544;2023-07-13T08:34:44;96036.38;;;26.82;49.11
72636;BME280;60679;48.888;15.544;2023-07-13T08:37:10;96045.63;;;26.95;48.83
72636;BME280;60679;48.888;15.544;2023-07-13T08:39:36;96045.22;;;27.05;48.66
72636;BME280;60679;48.888;15.544;2023-07-13T08:42:16;96047.19;;;27.34;48.28
72636;BME280;60679;48.888;15.544;2023-07-13T08:47:15;96050.66;;;27.60;47.64
72636;BME280;60679;48.888;15.544;2023-07-13T08:49:41;96052.03;;;27.45;47.58
72636;BME280;60679;48.888;15.544;2023-07-13T08:52:17;96058.63;;;27.62;47.28
72636;BME280;60679;48.888;15.544;2023-07-13T08:54:51;96057.59;;;27.66;46.92
72636;BME280;60679;48.888;15.544;2023-07-13T08:57:25;96055.84;;;27.82;46.55
72636;BME280;60679;48.888;15.544;2023-07-13T08:59:55;96061.72;;;27.81;46.42
72636;BME280;60679;48.888;15.544;2023-07-13T09:02:28;96064.38;;;27.98;46.18
72636;BME280;60679;48.888;15.544;2023-07-13T09:05:03;96065.25;;;27.90;46.07
72636;BME280;60679;48.888;15.544;2023-07-13T09:07:58;96066.97;;;27.82;46.06
72636;BME280;60679;48.888;15.544;2023-07-13T09:15:41;96065.72;;;28.66;44.21
72636;BME280;60679;48.888;15.544;2023-07-13T09:18:31;96072.03;;;28.99;44.11
72636;BME280;60679;48.888;15.544;2023-07-13T09:21:29;96070.75;;;28.97;43.71
72636;BME280;60679;48.888;15.544;2023-07-13T09:23:59;96080.38;;;28.99;43.56
72636;BME280;60679;48.888;15.544;2023-07-13T09:26:28;96078.19;;;29.77;42.28
72636;BME280;60679;48.888;15.544;2023-07-13T09:28:58;96084.78;;;29.97;42.17
72636;BME280;60679;48.888;15.544;2023-07-13T09:31:34;96085.69;;;30.41;41.46
72636;BME280;60679;48.888;15.544;2023-07-13T09:34:04;96090.69;;;31.22;40.53
72636;BME280;60679;48.888;15.544;2023-07-13T09:36:33;96086.59;;;30.73;41.41
72636;BME280;60679;48.888;15.544;2023-07-13T09:44:36;96078.19;;;30.57;41.18
72636;BME280;60679;48.888;15.544;2023-07-13T09:47:03;96076.41;;;31.24;39.84
72636;BME280;60679;48.888;15.544;2023-07-13T09:49:34;96073.78;;;31.81;39.28
72636;BME280;60679;48.888;15.544;2023-07-13T09:52:11;96072.34;;;31.87;39.37
72636;BME280;60679;48.888;15.544;2023-07-13T09:54:37;96076.16;;;32.33;38.50
72636;BME280;60679;48.888;15.544;2023-07-13T09:57:11;96073.25;;;33.06;36.85
72636;BME280;60679;48.888;15.544;2023-07-13T09:59:41;96074.91;;;32.50;37.73
72636;BME280;60679;48.888;15.544;2023-07-13T10:02:23;96081.78;;;31.32;39.01
72636;BME280;60679;48.888;15.544;2023-07-13T10:04:56;96087.66;;;31.12;39.11
72636;BME280;60679;48.888;15.544;2023-07-13T10:07:23;96074.25;;;30.74;39.51
72636;BME280;60679;48.888;15.544;2023-07-13T10:09:58;96081.72;;;30.14;39.73
72636;BME280;60679;48.888;15.544;2023-07-13T10:12:24;96083.84;;;29.93;39.90
72636;BME280;60679;48.888;15.544;2023-07-13T10:14:59;96084.00;;;30.24;39.37
72636;BME280;60679;48.888;15.544;2023-07-13T10:17:32;96093.63;;;30.55;38.65
72636;BME280;60679;48.888;15.544;2023-07-13T10:20:04;96091.19;;;30.81;37.98
72636;BME280;60679;48.888;15.544;2023-07-13T10:22:45;96101.25;;;30.70;37.95
72636;BME280;60679;48.888;15.544;2023-07-13T10:25:20;96100.34;;;31.09;37.11
72636;BME280;60679;48.888;15.544;2023-07-13T10:27:50;96093.81;;;34.15;33.32
72636;BME280;60679;48.888;15.544;2023-07-13T10:30:21;96090.53;;;34.69;33.07
72636;BME280;60679;48.888;15.544;2023-07-13T10:32:51;96089.03;;;33.90;34.00
72636;BME280;60679;48.888;15.544;2023-07-13T10:35:19;96084.31;;;32.80;35.74
72636;BME280;60679;48.888;15.544;2023-07-13T10:40:18;96090.38;;;41.75;25.69
72636;BME280;60679;48.888;15.544;2023-07-13T10:42:47;96084.34;;;44.05;24.11
72636;BME280;60679;48.888;15.544;2023-07-13T10:45:21;96080.00;;;41.65;26.17
72636;BME280;60679;48.888;15.544;2023-07-13T10:47:49;96089.06;;;40.99;26.61
72636;BME280;60679;48.888;15.544;2023-07-13T10:50:23;96074.84;;;36.55;31.35
72636;BME280;60679;48.888;15.544;2023-07-13T10:53:17;96075.19;;;33.51;34.57
72636;BME280;60679;48.888;15.544;2023-07-13T10:58:22;96068.22;;;33.91;32.60
72636;BME280;60679;48.888;15.544;2023-07-13T11:01:08;96068.84;;;35.03;31.37
72636;BME280;60679;48.888;15.544;2023-07-13T11:03:36;96061.78;;;37.93;28.04
72636;BME280;60679;48.888;15.544;2023-07-13T11:06:07;96057.84;;;44.95;21.55
72636;BME280;60679;48.888;15.544;2023-07-13T11:08:38;96068.28;;;46.71;20.43
72636;BME280;60679;48.888;15.544;2023-07-13T11:18:51;96068.78;;;34.96;31.00
72636;BME280;60679;48.888;15.544;2023-07-13T11:21:19;96063.94;;;34.93;30.70
72636;BME280;60679;48.888;15.544;2023-07-13T11:23:52;96064.56;;;34.13;31.04
72636;BME280;60679;48.888;15.544;2023-07-13T11:26:41;96063.09;;;35.73;29.13
72636;BME280;60679;48.888;15.544;2023-07-13T11:31:57;96064.72;;;44.23;20.70
72636;BME280;60679;48.888;15.544;2023-07-13T11:34:30;96067.28;;;48.10;18.14
72636;BME280;60679;48.888;15.544;2023-07-13T11:36:58;96075.41;;;49.29;16.97
72636;BME280;60679;48.888;15.544;2023-07-13T11:39:31;96069.22;;;50.29;16.48
72636;BME280;60679;48.888;15.544;2023-07-13T11:42:00;96064.50;;;47.88;18.12
72636;BME280;60679;48.888;15.544;2023-07-13T11:44:29;96064.50;;;43.18;21.90
72636;BME280;60679;48.888;15.544;2023-07-13T11:46:57;96064.63;;;40.11;24.14
72636;BME280;60679;48.888;15.544;2023-07-13T11:49:28;96067.69;;;40.23;23.79
72636;BME280;60679;48.888;15.544;2023-07-13T11:51:56;96071.44;;;37.85;25.36
72636;BME280;60679;48.888;15.544;2023-07-13T11:54:31;96071.06;;;37.65;25.30
72636;BME280;60679;48.888;15.544;2023-07-13T11:57:24;96066.09;;;35.51;27.07
72636;BME280;60679;48.888;15.544;2023-07-13T11:59:49;96064.72;;;34.27;28.37
72636;BME280;60679;48.888;15.544;2023-07-13T12:02:26;96046.72;;;34.98;27.47
72636;BME280;60679;48.888;15.544;2023-07-13T12:04:53;96048.31;;;34.96;26.99
72636;BME280;60679;48.888;15.544;2023-07-13T12:07:19;96040.31;;;34.61;27.15
72636;BME280;60679;48.888;15.544;2023-07-13T12:09:45;96037.84;;;34.56;27.25
72636;BME280;60679;48.888;15.544;2023-07-13T12:12:17;96038.22;;;34.54;27.79
72636;BME280;60679;48.888;15.544;2023-07-13T12:14:43;96034.53;;;34.47;27.55
72636;BME280;60679;48.888;15.544;2023-07-13T12:17:25;96022.84;;;34.41;27.28
72636;BME280;60679;48.888;15.544;2023-07-13T12:19:52;96029.66;;;35.61;25.89
72636;BME280;60679;48.888;15.544;2023-07-13T12:22:19;96021.22;;;41.42;20.82
72636;BME280;60679;48.888;15.544;2023-07-13T12:24:46;96017.47;;;37.30;24.25
72636;BME280;60679;48.888;15.544;2023-07-13T12:27:21;96009.50;;;35.05;26.18
72636;BME280;60679;48.888;15.544;2023-07-13T12:29:56;96016.31;;;35.51;25.58
72636;BME280;60679;48.888;15.544;2023-07-13T12:32:24;96000.66;;;36.12;24.66
72636;BME280;60679;48.888;15.544;2023-07-13T12:34:52;95991.66;;;37.84;23.31
72636;BME280;60679;48.888;15.544;2023-07-13T12:37:18;95996.56;;;40.21;21.16
72636;BME280;60679;48.888;15.544;2023-07-13T12:39:47;95979.66;;;41.78;19.90
72636;BME280;60679;48.888;15.544;2023-07-13T12:42:20;95999.75;;;48.45;15.08
72636;BME280;60679;48.888;15.544;2023-07-13T12:44:46;95998.41;;;50.70;14.41
72636;BME280;60679;48.888;15.544;2023-07-13T12:47:14;96003.88;;;51.41;14.70
72636;BME280;60679;48.888;15.544;2023-07-13T12:49:43;95989.28;;;49.20;15.52
72636;BME280;60679;48.888;15.544;2023-07-13T12:52:22;95981.84;;;50.79;14.30
72636;BME280;60679;48.888;15.544;2023-07-13T12:55:03;95988.38;;;52.08;13.96
72636;BME280;60679;48.888;15.544;2023-07-13T12:57:29;95986.34;;;53.26;13.14
72636;BME280;60679;48.888;15.544;2023-07-13T12:59:55;95989.66;;;53.50;13.49
72636;BME280;60679;48.888;15.544;2023-07-13T13:02:32;95984.59;;;53.40;13.47
72636;BME280;60679;48.888;15.544;2023-07-13T13:05:01;95988.41;;;53.94;13.14
72636;BME280;60679;48.888;15.544;2023-07-13T13:07:28;95969.38;;;52.62;13.16
72636;BME280;60679;48.888;15.544;2023-07-13T13:09:54;95971.06;;;51.88;13.55
72636;BME280;60679;48.888;15.544;2023-07-13T13:12:20;95973.59;;;52.21;12.92
72636;BME280;60679;48.888;15.544;2023-07-13T13:14:46;95962.66;;;52.96;12.91
72636;BME280;60679;48.888;15.544;2023-07-13T13:17:19;95962.75;;;53.08;12.95
72636;BME280;60679;48.888;15.544;2023-07-13T13:19:45;95963.81;;;53.10;12.50
72636;BME280;60679;48.888;15.544;2023-07-13T13:22:11;95957.25;;;52.32;12.54